<?xml version="1.0" encoding="UTF-8" standalone="no" ?>
<gpx xmlns="http://www.topografix.com/GPX/1/1" xmlns:xsi="http://www.w3.org/2001/XMLSchema-instance" xsi:schemaLocation="http://www.topografix.com/GPX/1/1 http://www.topografix.com/GPX/1/1/gpx.xsd" version="1.1" creator="VisuGPX - https://www.visugpx.com">
  <metadata>
    <name>Le Mourtis N5</name>
  </metadata>
  <wpt lat="42.9131" lon="0.76999">
    <ele>1427.2</ele>
    <name><![CDATA[00-1434]]></name>
    <desc><![CDATA[]]></desc>
  </wpt>
  <wpt lat="42.91291" lon="0.77431">
    <ele>1381.7</ele>
    <name><![CDATA[01-1395]]></name>
    <desc><![CDATA[]]></desc>
  </wpt>
  <wpt lat="42.90952" lon="0.78114">
    <ele>1396.7</ele>
    <name><![CDATA[02-1408]]></name>
    <desc><![CDATA[]]></desc>
  </wpt>
  <wpt lat="42.90487" lon="0.78945">
    <ele>1430</ele>
    <name><![CDATA[03-1447]]></name>
    <desc><![CDATA[]]></desc>
  </wpt>
  <wpt lat="42.90261" lon="0.78704">
    <ele>1418.2</ele>
    <name><![CDATA[04-1432]]></name>
    <desc><![CDATA[]]></desc>
  </wpt>
  <wpt lat="42.90795" lon="0.78503">
    <ele>1419.6</ele>
    <name><![CDATA[05-1432]]></name>
    <desc><![CDATA[]]></desc>
  </wpt>
  <wpt lat="42.91015" lon="0.77517">
    <ele>1382.7</ele>
    <name><![CDATA[06-1390]]></name>
    <desc><![CDATA[]]></desc>
  </wpt>
  <wpt lat="42.9142" lon="0.76755">
    <ele>1407.2</ele>
    <name><![CDATA[07-1417]]></name>
    <desc><![CDATA[]]></desc>
  </wpt>
  <trk>
    <name><![CDATA[Le Mourtis01-N5-21377202-24180976]]></name>
    <trkseg>
      <trkpt lat="42.9131" lon="0.76999">
        <ele>1436</ele>
        <time>2026-05-25T09:35:33Z</time>
      </trkpt>
      <trkpt lat="42.9133" lon="0.76786">
        <ele>1428</ele>
        <time>2026-05-25T09:39:03Z</time>
      </trkpt>
      <trkpt lat="42.91352" lon="0.76721">
        <ele>1423</ele>
        <time>2026-05-25T09:40:13Z</time>
      </trkpt>
      <trkpt lat="42.91417" lon="0.76683">
        <ele>1415</ele>
        <time>2026-05-25T09:41:47Z</time>
      </trkpt>
      <trkpt lat="42.91432" lon="0.76705">
        <ele>1415</ele>
        <time>2026-05-25T09:42:17Z</time>
      </trkpt>
      <trkpt lat="42.91418" lon="0.76777">
        <ele>1416</ele>
        <time>2026-05-25T09:43:29Z</time>
      </trkpt>
      <trkpt lat="42.91429" lon="0.76878">
        <ele>1413</ele>
        <time>2026-05-25T09:45:09Z</time>
      </trkpt>
      <trkpt lat="42.91427" lon="0.77003">
        <ele>1414</ele>
        <time>2026-05-25T09:47:11Z</time>
      </trkpt>
      <trkpt lat="42.91438" lon="0.77109">
        <ele>1410</ele>
        <time>2026-05-25T09:48:56Z</time>
      </trkpt>
      <trkpt lat="42.91422" lon="0.77216">
        <ele>1405</ele>
        <time>2026-05-25T09:50:43Z</time>
      </trkpt>
      <trkpt lat="42.91403" lon="0.77308">
        <ele>1401</ele>
        <time>2026-05-25T09:52:16Z</time>
      </trkpt>
      <trkpt lat="42.91359" lon="0.77372">
        <ele>1399</ele>
        <time>2026-05-25T09:53:42Z</time>
      </trkpt>
      <trkpt lat="42.91318" lon="0.77423">
        <ele>1393</ele>
        <time>2026-05-25T09:54:56Z</time>
      </trkpt>
      <trkpt lat="42.91296" lon="0.77433">
        <ele>1390</ele>
        <time>2026-05-25T09:55:27Z</time>
      </trkpt>
      <trkpt lat="42.91291" lon="0.77431">
        <ele>1390</ele>
        <time>2026-05-25T09:55:34Z</time>
      </trkpt>
      <trkpt lat="42.9126" lon="0.77422">
        <ele>1390</ele>
        <time>2026-05-25T09:56:16Z</time>
      </trkpt>
      <trkpt lat="42.91219" lon="0.77388">
        <ele>1397</ele>
        <time>2026-05-25T09:57:20Z</time>
      </trkpt>
      <trkpt lat="42.91191" lon="0.77372">
        <ele>1402</ele>
        <time>2026-05-25T09:58:01Z</time>
      </trkpt>
      <trkpt lat="42.91173" lon="0.774">
        <ele>1395</ele>
        <time>2026-05-25T09:58:37Z</time>
      </trkpt>
      <trkpt lat="42.91157" lon="0.77452">
        <ele>1387</ele>
        <time>2026-05-25T09:59:32Z</time>
      </trkpt>
      <trkpt lat="42.91143" lon="0.77476">
        <ele>1385</ele>
        <time>2026-05-25T10:00:02Z</time>
      </trkpt>
      <trkpt lat="42.91111" lon="0.77489">
        <ele>1386</ele>
        <time>2026-05-25T10:00:47Z</time>
      </trkpt>
      <trkpt lat="42.91072" lon="0.775">
        <ele>1388</ele>
        <time>2026-05-25T10:01:40Z</time>
      </trkpt>
      <trkpt lat="42.91017" lon="0.77513">
        <ele>1389</ele>
        <time>2026-05-25T10:02:54Z</time>
      </trkpt>
      <trkpt lat="42.90996" lon="0.77541">
        <ele>1389</ele>
        <time>2026-05-25T10:03:34Z</time>
      </trkpt>
      <trkpt lat="42.90978" lon="0.77582">
        <ele>1392</ele>
        <time>2026-05-25T10:04:20Z</time>
      </trkpt>
      <trkpt lat="42.90954" lon="0.7763">
        <ele>1397</ele>
        <time>2026-05-25T10:05:17Z</time>
      </trkpt>
      <trkpt lat="42.90935" lon="0.7766">
        <ele>1402</ele>
        <time>2026-05-25T10:05:56Z</time>
      </trkpt>
      <trkpt lat="42.9093" lon="0.77678">
        <ele>1404</ele>
        <time>2026-05-25T10:06:15Z</time>
      </trkpt>
      <trkpt lat="42.90933" lon="0.77694">
        <ele>1403</ele>
        <time>2026-05-25T10:06:31Z</time>
      </trkpt>
      <trkpt lat="42.90959" lon="0.77726">
        <ele>1393</ele>
        <time>2026-05-25T10:07:18Z</time>
      </trkpt>
      <trkpt lat="42.90974" lon="0.77864">
        <ele>1399</ele>
        <time>2026-05-25T10:09:34Z</time>
      </trkpt>
      <trkpt lat="42.91022" lon="0.77968">
        <ele>1400</ele>
        <time>2026-05-25T10:11:34Z</time>
      </trkpt>
      <trkpt lat="42.91042" lon="0.78016">
        <ele>1399</ele>
        <time>2026-05-25T10:12:28Z</time>
      </trkpt>
      <trkpt lat="42.91045" lon="0.78054">
        <ele>1396</ele>
        <time>2026-05-25T10:13:05Z</time>
      </trkpt>
      <trkpt lat="42.91027" lon="0.78093">
        <ele>1396</ele>
        <time>2026-05-25T10:13:50Z</time>
      </trkpt>
      <trkpt lat="42.90995" lon="0.78104">
        <ele>1401</ele>
        <time>2026-05-25T10:14:34Z</time>
      </trkpt>
      <trkpt lat="42.90952" lon="0.78114">
        <ele>1411</ele>
        <time>2026-05-25T10:15:33Z</time>
      </trkpt>
      <trkpt lat="42.90945" lon="0.78115">
        <ele>1413</ele>
        <time>2026-05-25T10:15:42Z</time>
      </trkpt>
      <trkpt lat="42.90908" lon="0.78148">
        <ele>1415</ele>
        <time>2026-05-25T10:16:41Z</time>
      </trkpt>
      <trkpt lat="42.90862" lon="0.78218">
        <ele>1419</ele>
        <time>2026-05-25T10:18:13Z</time>
      </trkpt>
      <trkpt lat="42.90836" lon="0.78261">
        <ele>1425</ele>
        <time>2026-05-25T10:19:07Z</time>
      </trkpt>
      <trkpt lat="42.90789" lon="0.78545">
        <ele>1435</ele>
        <time>2026-05-25T10:23:52Z</time>
      </trkpt>
      <trkpt lat="42.90786" lon="0.7862">
        <ele>1437</ele>
        <time>2026-05-25T10:25:05Z</time>
      </trkpt>
      <trkpt lat="42.90785" lon="0.7879">
        <ele>1440</ele>
        <time>2026-05-25T10:27:52Z</time>
      </trkpt>
      <trkpt lat="42.90765" lon="0.78836">
        <ele>1440</ele>
        <time>2026-05-25T10:28:44Z</time>
      </trkpt>
      <trkpt lat="42.9075" lon="0.78849">
        <ele>1437</ele>
        <time>2026-05-25T10:29:08Z</time>
      </trkpt>
      <trkpt lat="42.90725" lon="0.78863">
        <ele>1436</ele>
        <time>2026-05-25T10:29:44Z</time>
      </trkpt>
      <trkpt lat="42.90686" lon="0.78852">
        <ele>1448</ele>
        <time>2026-05-25T10:30:37Z</time>
      </trkpt>
      <trkpt lat="42.90647" lon="0.78865">
        <ele>1452</ele>
        <time>2026-05-25T10:31:30Z</time>
      </trkpt>
      <trkpt lat="42.9059" lon="0.78916">
        <ele>1446</ele>
        <time>2026-05-25T10:33:01Z</time>
      </trkpt>
      <trkpt lat="42.90558" lon="0.78947">
        <ele>1440</ele>
        <time>2026-05-25T10:33:54Z</time>
      </trkpt>
      <trkpt lat="42.90536" lon="0.78958">
        <ele>1439</ele>
        <time>2026-05-25T10:34:25Z</time>
      </trkpt>
      <trkpt lat="42.90513" lon="0.78959">
        <ele>1443</ele>
        <time>2026-05-25T10:34:56Z</time>
      </trkpt>
      <trkpt lat="42.90487" lon="0.78945">
        <ele>1447</ele>
        <time>2026-05-25T10:35:33Z</time>
      </trkpt>
      <trkpt lat="42.90487" lon="0.78945">
        <ele>1447</ele>
        <time>2026-05-25T10:35:33Z</time>
      </trkpt>
      <trkpt lat="42.9044" lon="0.78879">
        <ele>1451</ele>
        <time>2026-05-25T10:37:03Z</time>
      </trkpt>
      <trkpt lat="42.90411" lon="0.78849">
        <ele>1451</ele>
        <time>2026-05-25T10:37:51Z</time>
      </trkpt>
      <trkpt lat="42.90389" lon="0.78837">
        <ele>1450</ele>
        <time>2026-05-25T10:38:23Z</time>
      </trkpt>
      <trkpt lat="42.9036" lon="0.78847">
        <ele>1443</ele>
        <time>2026-05-25T10:39:03Z</time>
      </trkpt>
      <trkpt lat="42.90345" lon="0.78864">
        <ele>1437</ele>
        <time>2026-05-25T10:39:29Z</time>
      </trkpt>
      <trkpt lat="42.90326" lon="0.78876">
        <ele>1431</ele>
        <time>2026-05-25T10:39:57Z</time>
      </trkpt>
      <trkpt lat="42.90303" lon="0.78855">
        <ele>1428</ele>
        <time>2026-05-25T10:40:34Z</time>
      </trkpt>
      <trkpt lat="42.90284" lon="0.78811">
        <ele>1429</ele>
        <time>2026-05-25T10:41:24Z</time>
      </trkpt>
      <trkpt lat="42.90267" lon="0.78727">
        <ele>1435</ele>
        <time>2026-05-25T10:42:49Z</time>
      </trkpt>
      <trkpt lat="42.90252" lon="0.78682">
        <ele>1436</ele>
        <time>2026-05-25T10:43:37Z</time>
      </trkpt>
      <trkpt lat="42.90219" lon="0.78626">
        <ele>1430</ele>
        <time>2026-05-25T10:44:48Z</time>
      </trkpt>
      <trkpt lat="42.90205" lon="0.78595">
        <ele>1427</ele>
        <time>2026-05-25T10:45:23Z</time>
      </trkpt>
      <trkpt lat="42.90201" lon="0.78509">
        <ele>1433</ele>
        <time>2026-05-25T10:46:47Z</time>
      </trkpt>
      <trkpt lat="42.90201" lon="0.7835">
        <ele>1447</ele>
        <time>2026-05-25T10:49:23Z</time>
      </trkpt>
      <trkpt lat="42.90203" lon="0.78578">
        <ele>1429</ele>
        <time>2026-05-25T10:53:06Z</time>
      </trkpt>
      <trkpt lat="42.90211" lon="0.78613">
        <ele>1428</ele>
        <time>2026-05-25T10:53:42Z</time>
      </trkpt>
      <trkpt lat="42.90248" lon="0.78671">
        <ele>1435</ele>
        <time>2026-05-25T10:54:57Z</time>
      </trkpt>
      <trkpt lat="42.90261" lon="0.78704">
        <ele>1436</ele>
        <time>2026-05-25T10:55:34Z</time>
      </trkpt>
      <trkpt lat="42.90273" lon="0.78732">
        <ele>1436</ele>
        <time>2026-05-25T10:56:05Z</time>
      </trkpt>
      <trkpt lat="42.90285" lon="0.78808">
        <ele>1430</ele>
        <time>2026-05-25T10:57:21Z</time>
      </trkpt>
      <trkpt lat="42.90301" lon="0.78849">
        <ele>1428</ele>
        <time>2026-05-25T10:58:06Z</time>
      </trkpt>
      <trkpt lat="42.90326" lon="0.78876">
        <ele>1431</ele>
        <time>2026-05-25T10:58:49Z</time>
      </trkpt>
      <trkpt lat="42.90364" lon="0.78849">
        <ele>1443</ele>
        <time>2026-05-25T10:59:46Z</time>
      </trkpt>
      <trkpt lat="42.90391" lon="0.78837">
        <ele>1450</ele>
        <time>2026-05-25T11:00:24Z</time>
      </trkpt>
      <trkpt lat="42.90432" lon="0.78868">
        <ele>1452</ele>
        <time>2026-05-25T11:01:27Z</time>
      </trkpt>
      <trkpt lat="42.90477" lon="0.78931">
        <ele>1448</ele>
        <time>2026-05-25T11:02:53Z</time>
      </trkpt>
      <trkpt lat="42.90516" lon="0.78962">
        <ele>1441</ele>
        <time>2026-05-25T11:03:53Z</time>
      </trkpt>
      <trkpt lat="42.90557" lon="0.78956">
        <ele>1436</ele>
        <time>2026-05-25T11:04:48Z</time>
      </trkpt>
      <trkpt lat="42.90607" lon="0.78903">
        <ele>1446</ele>
        <time>2026-05-25T11:06:12Z</time>
      </trkpt>
      <trkpt lat="42.90649" lon="0.78868">
        <ele>1450</ele>
        <time>2026-05-25T11:07:18Z</time>
      </trkpt>
      <trkpt lat="42.90686" lon="0.78855">
        <ele>1447</ele>
        <time>2026-05-25T11:08:09Z</time>
      </trkpt>
      <trkpt lat="42.90724" lon="0.78859">
        <ele>1438</ele>
        <time>2026-05-25T11:09:00Z</time>
      </trkpt>
      <trkpt lat="42.90754" lon="0.78847">
        <ele>1437</ele>
        <time>2026-05-25T11:09:42Z</time>
      </trkpt>
      <trkpt lat="42.90776" lon="0.78821">
        <ele>1440</ele>
        <time>2026-05-25T11:10:20Z</time>
      </trkpt>
      <trkpt lat="42.90785" lon="0.78784">
        <ele>1440</ele>
        <time>2026-05-25T11:10:59Z</time>
      </trkpt>
      <trkpt lat="42.90789" lon="0.78712">
        <ele>1438</ele>
        <time>2026-05-25T11:12:09Z</time>
      </trkpt>
      <trkpt lat="42.90788" lon="0.78591">
        <ele>1435</ele>
        <time>2026-05-25T11:14:07Z</time>
      </trkpt>
      <trkpt lat="42.90795" lon="0.78503">
        <ele>1433</ele>
        <time>2026-05-25T11:15:33Z</time>
      </trkpt>
      <trkpt lat="42.90798" lon="0.78469">
        <ele>1432</ele>
        <time>2026-05-25T11:16:07Z</time>
      </trkpt>
      <trkpt lat="42.9082" lon="0.78367">
        <ele>1425</ele>
        <time>2026-05-25T11:17:51Z</time>
      </trkpt>
      <trkpt lat="42.90838" lon="0.78264">
        <ele>1424</ele>
        <time>2026-05-25T11:19:35Z</time>
      </trkpt>
      <trkpt lat="42.90875" lon="0.78204">
        <ele>1416</ele>
        <time>2026-05-25T11:20:51Z</time>
      </trkpt>
      <trkpt lat="42.90916" lon="0.78143">
        <ele>1413</ele>
        <time>2026-05-25T11:22:12Z</time>
      </trkpt>
      <trkpt lat="42.90957" lon="0.78113">
        <ele>1410</ele>
        <time>2026-05-25T11:23:14Z</time>
      </trkpt>
      <trkpt lat="42.91025" lon="0.78096">
        <ele>1396</ele>
        <time>2026-05-25T11:24:47Z</time>
      </trkpt>
      <trkpt lat="42.91044" lon="0.78063">
        <ele>1396</ele>
        <time>2026-05-25T11:25:28Z</time>
      </trkpt>
      <trkpt lat="42.91042" lon="0.78004">
        <ele>1400</ele>
        <time>2026-05-25T11:26:25Z</time>
      </trkpt>
      <trkpt lat="42.90982" lon="0.7788">
        <ele>1399</ele>
        <time>2026-05-25T11:28:51Z</time>
      </trkpt>
      <trkpt lat="42.90955" lon="0.77731">
        <ele>1395</ele>
        <time>2026-05-25T11:31:21Z</time>
      </trkpt>
      <trkpt lat="42.90932" lon="0.77678">
        <ele>1403</ele>
        <time>2026-05-25T11:32:21Z</time>
      </trkpt>
      <trkpt lat="42.90931" lon="0.77665">
        <ele>1403</ele>
        <time>2026-05-25T11:32:34Z</time>
      </trkpt>
      <trkpt lat="42.91015" lon="0.77517">
        <ele>1389</ele>
        <time>2026-05-25T11:35:37Z</time>
      </trkpt>
      <trkpt lat="42.91091" lon="0.775">
        <ele>1386</ele>
        <time>2026-05-25T11:37:19Z</time>
      </trkpt>
      <trkpt lat="42.91143" lon="0.77476">
        <ele>1385</ele>
        <time>2026-05-25T11:38:33Z</time>
      </trkpt>
      <trkpt lat="42.91166" lon="0.77424">
        <ele>1390</ele>
        <time>2026-05-25T11:39:32Z</time>
      </trkpt>
      <trkpt lat="42.91178" lon="0.77381">
        <ele>1400</ele>
        <time>2026-05-25T11:40:17Z</time>
      </trkpt>
      <trkpt lat="42.91205" lon="0.77373">
        <ele>1401</ele>
        <time>2026-05-25T11:40:54Z</time>
      </trkpt>
      <trkpt lat="42.91252" lon="0.77415">
        <ele>1390</ele>
        <time>2026-05-25T11:42:09Z</time>
      </trkpt>
      <trkpt lat="42.91281" lon="0.77431">
        <ele>1390</ele>
        <time>2026-05-25T11:42:51Z</time>
      </trkpt>
      <trkpt lat="42.91318" lon="0.77426">
        <ele>1392</ele>
        <time>2026-05-25T11:43:40Z</time>
      </trkpt>
      <trkpt lat="42.91369" lon="0.77362">
        <ele>1400</ele>
        <time>2026-05-25T11:45:13Z</time>
      </trkpt>
      <trkpt lat="42.91402" lon="0.77308">
        <ele>1401</ele>
        <time>2026-05-25T11:46:21Z</time>
      </trkpt>
      <trkpt lat="42.9142" lon="0.77236">
        <ele>1403</ele>
        <time>2026-05-25T11:47:36Z</time>
      </trkpt>
      <trkpt lat="42.91437" lon="0.77093">
        <ele>1411</ele>
        <time>2026-05-25T11:49:57Z</time>
      </trkpt>
      <trkpt lat="42.91427" lon="0.76965">
        <ele>1413</ele>
        <time>2026-05-25T11:52:03Z</time>
      </trkpt>
      <trkpt lat="42.91432" lon="0.76867">
        <ele>1413</ele>
        <time>2026-05-25T11:53:39Z</time>
      </trkpt>
      <trkpt lat="42.91413" lon="0.76784">
        <ele>1417</ele>
        <time>2026-05-25T11:55:04Z</time>
      </trkpt>
      <trkpt lat="42.9142" lon="0.76755">
        <ele>1416</ele>
        <time>2026-05-25T11:55:34Z</time>
      </trkpt>
      <trkpt lat="42.91432" lon="0.76701">
        <ele>1416</ele>
        <time>2026-05-25T11:56:29Z</time>
      </trkpt>
      <trkpt lat="42.91396" lon="0.76696">
        <ele>1418</ele>
        <time>2026-05-25T11:57:17Z</time>
      </trkpt>
      <trkpt lat="42.91345" lon="0.76735">
        <ele>1425</ele>
        <time>2026-05-25T11:58:35Z</time>
      </trkpt>
      <trkpt lat="42.91324" lon="0.76841">
        <ele>1431</ele>
        <time>2026-05-25T12:00:23Z</time>
      </trkpt>
      <trkpt lat="42.91306" lon="0.7702">
        <ele>1435</ele>
        <time>2026-05-25T12:03:19Z</time>
      </trkpt>
    </trkseg>
  </trk>
</gpx>